createdAt,value
2023-02-23T00:00:36.228Z,34.63
2023-02-23T00:01:38.605Z,36.47
2023-02-23T00:02:39.954Z,35.97
2023-02-23T00:03:41.421Z,36.80
2023-02-23T00:04:42.859Z,37.13
2023-02-23T00:05:44.197Z,37.90
2023-02-23T00:06:45.643Z,37.80
2023-02-23T00:07:47.226Z,37.20
2023-02-23T00:08:49.362Z,35.20
2023-02-23T00:09:50.905Z,35.90
2023-02-23T00:10:58.455Z,34.83
2023-02-23T00:12:00.060Z,37.13
2023-02-23T00:13:01.474Z,36.90
2023-02-23T00:14:03.520Z,38.50
2023-02-23T00:15:05.324Z,34.17
2023-02-23T00:16:07.710Z,39.63
2023-02-23T00:17:14.181Z,37.43
2023-02-23T00:18:17.264Z,34.23
2023-02-23T00:19:19.274Z,40.27
2023-02-23T00:20:25.212Z,33.33
2023-02-23T00:21:30.529Z,35.53
2023-02-23T00:22:32.007Z,36.37
2023-02-23T00:23:33.365Z,36.07
2023-02-23T00:24:36.537Z,38.63
2023-02-23T00:25:38.775Z,34.60
2023-02-23T00:26:40.482Z,34.50
2023-02-23T00:27:45.726Z,36.93
2023-02-23T00:28:48.117Z,39.30
2023-02-23T00:29:49.789Z,38.70
2023-02-23T00:30:51.282Z,38.83
2023-02-23T00:31:53.025Z,34.80
2023-02-23T00:32:54.501Z,34.97
2023-02-23T00:33:57.162Z,35.60
2023-02-23T00:34:58.598Z,40.13
2023-02-23T00:36:06.663Z,38.00
2023-02-23T00:37:08.728Z,38.83
2023-02-23T00:38:10.100Z,39.03
2023-02-23T00:39:38.288Z,41.43
2023-02-23T00:40:41.185Z,36.70
2023-02-23T00:41:42.726Z,37.50
2023-02-23T00:42:45.182Z,37.87
2023-02-23T00:43:49.575Z,40.10
2023-02-23T00:44:51.061Z,40.97
2023-02-23T00:45:55.147Z,39.00
2023-02-23T00:46:56.744Z,35.93
2023-02-23T00:47:58.146Z,41.87
2023-02-23T00:48:59.602Z,42.90
2023-02-23T00:50:00.960Z,40.10
2023-02-23T00:51:03.271Z,39.10
2023-02-23T00:52:05.170Z,37.93
2023-02-23T00:53:06.511Z,39.20
2023-02-23T00:54:08.136Z,39.53
2023-02-23T00:55:13.412Z,43.97
2023-02-23T00:56:15.476Z,41.57
2023-02-23T00:57:16.801Z,38.80
2023-02-23T00:58:18.152Z,42.10
2023-02-23T00:59:20.036Z,39.40
2023-02-23T01:00:21.410Z,40.70
2023-02-23T01:01:23.246Z,38.47
2023-02-23T01:02:25.677Z,35.50
2023-02-23T01:03:27.503Z,37.13
2023-02-23T01:04:28.840Z,38.03
2023-02-23T01:05:33.882Z,38.97
2023-02-23T01:06:37.639Z,43.63
2023-02-23T01:07:39.202Z,40.10
2023-02-23T01:08:41.800Z,37.73
2023-02-23T01:09:44.522Z,38.37
2023-02-23T01:10:52.541Z,40.07
2023-02-23T01:11:56.334Z,41.93
2023-02-23T01:12:57.688Z,41.73
2023-02-23T01:13:59.620Z,41.60
2023-02-23T01:15:03.296Z,41.20
2023-02-23T01:16:07.080Z,42.93
2023-02-23T01:17:08.490Z,39.67
2023-02-23T01:18:11.203Z,41.23
2023-02-23T01:19:13.379Z,43.57
2023-02-23T01:20:19.627Z,41.47
2023-02-23T01:21:25.671Z,36.40
2023-02-23T01:22:27.481Z,42.07
2023-02-23T01:23:28.870Z,42.33
2023-02-23T01:24:30.333Z,40.67
2023-02-23T01:25:32.608Z,42.90
2023-02-23T01:26:36.566Z,43.40
2023-02-23T01:27:39.032Z,43.50
2023-02-23T01:28:43.024Z,43.53
2023-02-23T01:29:44.411Z,45.77
2023-02-23T01:30:45.840Z,46.83
2023-02-23T01:31:48.400Z,41.67
2023-02-23T01:32:52.403Z,46.57
2023-02-23T01:33:57.311Z,41.77
2023-02-23T01:34:58.687Z,47.77
2023-02-23T01:36:00.432Z,42.27
2023-02-23T01:37:01.776Z,44.90
2023-02-23T01:38:03.906Z,48.00
2023-02-23T01:39:07.758Z,43.57
2023-02-23T01:40:15.313Z,43.17
2023-02-23T01:41:17.780Z,43.90
2023-02-23T01:42:22.784Z,43.53
2023-02-23T01:43:27.130Z,46.00
2023-02-23T01:44:31.503Z,47.03
2023-02-23T01:45:36.314Z,41.73
2023-02-23T01:46:39.094Z,44.20
2023-02-23T01:47:40.574Z,42.63
2023-02-23T01:48:41.907Z,46.47
2023-02-23T01:49:43.316Z,44.83
2023-02-23T01:50:50.912Z,46.33
2023-02-23T01:51:57.633Z,44.27
2023-02-23T01:52:59.352Z,45.30
2023-02-23T01:54:04.467Z,43.47
2023-02-23T01:55:06.176Z,49.63
2023-02-23T01:56:11.672Z,42.87
2023-02-23T01:57:14.006Z,47.10
2023-02-23T01:58:19.650Z,47.47
2023-02-23T01:59:21.037Z,43.50
2023-02-23T02:00:25.730Z,43.40
2023-02-23T02:01:29.513Z,47.03
2023-02-23T02:02:33.730Z,46.90
2023-02-23T02:03:54.372Z,41.97
2023-02-23T02:04:56.401Z,44.83
2023-02-23T02:06:03.645Z,50.20
2023-02-23T02:07:05.115Z,48.73
2023-02-23T02:08:08.076Z,46.23
2023-02-23T02:09:17.192Z,45.93
2023-02-23T02:10:38.713Z,48.73
2023-02-23T02:11:44.354Z,47.13
2023-02-23T02:12:49.001Z,45.70
2023-02-23T02:13:50.332Z,47.07
2023-02-23T02:14:55.516Z,48.43
2023-02-23T02:16:01.407Z,49.10
2023-02-23T02:17:21.993Z,48.87
2023-02-23T02:18:26.302Z,50.60
2023-02-23T02:19:39.858Z,50.23
2023-02-23T02:20:43.780Z,48.93
2023-02-23T02:22:04.876Z,52.17
2023-02-23T02:23:27.242Z,50.37
2023-02-23T02:24:32.477Z,45.20
2023-02-23T02:25:33.823Z,48.03
2023-02-23T02:26:43.946Z,47.70
2023-02-23T02:27:51.272Z,45.83
2023-02-23T02:28:52.878Z,49.10
2023-02-23T02:30:05.046Z,53.37
2023-02-23T02:31:06.385Z,49.10
2023-02-23T02:32:31.934Z,50.77
2023-02-23T02:33:53.467Z,52.67
2023-02-23T02:35:02.750Z,47.13
2023-02-23T02:36:21.724Z,45.13
2023-02-23T02:37:35.269Z,48.20
2023-02-23T02:39:08.108Z,46.50
2023-02-23T02:40:18.956Z,43.27
2023-02-23T02:41:20.534Z,45.13
2023-02-23T02:42:22.482Z,44.00
2023-02-23T02:43:32.974Z,53.43
2023-02-23T02:44:49.698Z,50.60
2023-02-23T02:45:54.214Z,46.50
2023-02-23T02:46:58.882Z,47.70
2023-02-23T02:48:03.251Z,46.60
2023-02-23T02:49:06.676Z,46.70
2023-02-23T02:50:08.057Z,48.60
2023-02-23T02:51:22.050Z,50.23
2023-02-23T02:52:34.759Z,51.77
2023-02-23T02:53:36.032Z,46.57
2023-02-23T02:54:39.121Z,47.10
2023-02-23T02:55:43.595Z,48.20
2023-02-23T02:56:49.555Z,53.90
2023-02-23T02:57:53.331Z,49.13
2023-02-23T02:58:55.519Z,49.63
2023-02-23T03:00:16.477Z,49.20
2023-02-23T03:01:36.662Z,53.83
2023-02-23T03:02:57.943Z,50.57
2023-02-23T03:04:19.287Z,48.83
2023-02-23T03:05:42.711Z,46.37
2023-02-23T03:07:05.944Z,52.07
2023-02-23T03:08:29.281Z,51.90
2023-02-23T03:09:54.706Z,48.50
2023-02-23T03:11:20.938Z,49.23
2023-02-23T03:12:47.352Z,52.43
2023-02-23T03:14:13.403Z,50.37
2023-02-23T03:15:56.930Z,51.37
2023-02-23T03:17:37.482Z,51.30
2023-02-23T03:19:16.597Z,52.90
2023-02-23T03:20:43.001Z,50.00
2023-02-23T03:22:25.607Z,54.77
2023-02-23T03:23:54.643Z,47.17
2023-02-23T03:25:20.981Z,52.07
2023-02-23T03:26:49.767Z,53.87
2023-02-23T03:28:16.894Z,51.83
2023-02-23T03:29:36.929Z,49.10
2023-02-23T03:31:01.608Z,51.53
2023-02-23T03:32:35.604Z,46.27
2023-02-23T03:34:00.296Z,51.53
2023-02-23T03:35:26.228Z,50.83
2023-02-23T03:36:47.437Z,52.37
2023-02-23T03:38:14.491Z,51.00
2023-02-23T03:39:56.157Z,46.93
2023-02-23T03:41:18.081Z,53.37
2023-02-23T03:42:40.667Z,49.37
2023-02-23T03:44:05.243Z,45.60
2023-02-23T03:45:28.318Z,48.00
2023-02-23T03:46:50.111Z,47.20
2023-02-23T03:48:11.497Z,49.57
2023-02-23T03:49:32.225Z,51.40
2023-02-23T03:50:57.861Z,50.57
2023-02-23T03:52:24.185Z,49.27
2023-02-23T03:53:47.978Z,51.57
2023-02-23T03:55:12.418Z,48.23
2023-02-23T03:56:35.616Z,48.63
2023-02-23T03:57:56.651Z,45.60
2023-02-23T03:59:17.890Z,48.57
2023-02-23T04:00:41.144Z,48.33
2023-02-23T04:02:01.647Z,52.03
2023-02-23T04:03:22.803Z,51.20
2023-02-23T04:04:43.593Z,48.23
2023-02-23T04:06:03.599Z,46.87
2023-02-23T04:07:25.479Z,45.13
2023-02-23T04:08:49.281Z,52.20
2023-02-23T04:10:10.078Z,50.17
2023-02-23T04:11:30.147Z,51.27
2023-02-23T04:12:52.554Z,49.97
2023-02-23T04:13:57.949Z,50.30
2023-02-23T04:15:12.744Z,48.57
2023-02-23T04:16:14.186Z,47.70
2023-02-23T04:17:16.731Z,46.67
2023-02-23T04:18:21.710Z,50.53
2023-02-23T04:19:25.874Z,52.63
2023-02-23T04:20:27.411Z,52.00
2023-02-23T04:21:28.814Z,53.43
2023-02-23T04:22:30.219Z,50.27
2023-02-23T04:23:32.056Z,50.77
2023-02-23T04:24:33.442Z,47.97
2023-02-23T04:25:35.428Z,49.53
2023-02-23T04:26:37.035Z,54.60
2023-02-23T04:27:38.450Z,52.10
2023-02-23T04:28:39.769Z,52.97
2023-02-23T04:29:41.177Z,49.13
2023-02-23T04:30:42.846Z,50.73
2023-02-23T04:31:44.384Z,50.53
2023-02-23T04:32:46.019Z,54.13
2023-02-23T04:33:47.524Z,48.00
2023-02-23T04:34:48.911Z,51.33
2023-02-23T04:35:51.946Z,54.27
2023-02-23T04:36:53.256Z,46.30
2023-02-23T04:37:54.717Z,51.40
2023-02-23T04:38:56.242Z,53.30
2023-02-23T04:39:57.588Z,50.57
2023-02-23T04:40:58.890Z,50.07
2023-02-23T04:42:00.178Z,51.63
2023-02-23T04:43:01.623Z,49.67
2023-02-23T04:44:02.926Z,51.27
2023-02-23T04:45:04.356Z,50.20
2023-02-23T04:46:05.758Z,52.70
2023-02-23T04:47:07.122Z,50.53
2023-02-23T04:48:08.467Z,50.10
2023-02-23T04:49:09.875Z,49.50
2023-02-23T04:50:11.911Z,49.10
2023-02-23T04:51:13.694Z,48.17
2023-02-23T04:52:15.071Z,51.53
2023-02-23T04:53:16.399Z,49.40
2023-02-23T04:54:18.221Z,49.53
2023-02-23T04:55:21.470Z,45.87
2023-02-23T04:56:22.827Z,49.80
2023-02-23T04:57:24.120Z,49.47
2023-02-23T04:58:25.487Z,52.13
2023-02-23T04:59:27.018Z,52.87
2023-02-23T05:00:29.329Z,53.53
2023-02-23T05:01:32.575Z,53.73
2023-02-23T05:02:33.909Z,51.23
2023-02-23T05:03:36.163Z,48.10
2023-02-23T05:04:37.631Z,48.87
2023-02-23T05:05:39.478Z,54.53
2023-02-23T05:06:40.900Z,49.90
2023-02-23T05:07:42.325Z,49.63
2023-02-23T05:08:43.713Z,52.40
2023-02-23T05:09:45.049Z,52.90
2023-02-23T05:10:46.354Z,53.33
2023-02-23T05:11:47.694Z,53.10
2023-02-23T05:12:49.107Z,50.33
2023-02-23T05:13:50.421Z,54.30
2023-02-23T05:14:51.746Z,50.37
2023-02-23T05:15:56.425Z,46.00
2023-02-23T05:16:57.856Z,55.03
2023-02-23T05:17:59.266Z,51.50
2023-02-23T05:19:00.722Z,51.30
2023-02-23T05:20:02.040Z,50.70
2023-02-23T05:21:07.526Z,51.23
2023-02-23T05:22:12.441Z,47.50
2023-02-23T05:23:13.733Z,50.33
2023-02-23T05:24:16.155Z,54.47
2023-02-23T05:25:17.583Z,51.77
2023-02-23T05:26:19.306Z,48.57
2023-02-23T05:27:20.831Z,49.70
2023-02-23T05:28:22.988Z,50.63
2023-02-23T05:29:24.760Z,48.97
2023-02-23T05:30:26.135Z,50.83
2023-02-23T05:31:27.876Z,49.07
2023-02-23T05:32:29.555Z,52.37
2023-02-23T05:33:35.284Z,51.30
2023-02-23T05:34:39.170Z,54.10
2023-02-23T05:35:41.436Z,47.13
2023-02-23T05:36:43.083Z,48.13
2023-02-23T05:37:44.678Z,46.90
2023-02-23T05:38:46.503Z,49.60
2023-02-23T05:39:47.850Z,55.20
2023-02-23T05:40:49.144Z,49.63
2023-02-23T05:41:50.506Z,48.50
2023-02-23T05:42:51.885Z,46.87
2023-02-23T05:43:54.731Z,49.13
2023-02-23T05:44:56.070Z,51.00
2023-02-23T05:45:57.382Z,50.13
2023-02-23T05:46:58.886Z,48.80
2023-02-23T05:48:00.257Z,46.70
2023-02-23T05:49:02.003Z,47.33
2023-02-23T05:50:03.532Z,48.17
2023-02-23T05:51:06.364Z,48.87
2023-02-23T05:52:08.397Z,48.77
2023-02-23T05:53:10.399Z,48.17
2023-02-23T05:54:12.310Z,44.93
2023-02-23T05:55:13.624Z,46.90
2023-02-23T05:56:20.652Z,51.13
2023-02-23T05:57:22.138Z,47.10
2023-02-23T05:58:23.554Z,48.03
2023-02-23T05:59:25.220Z,50.53
2023-02-23T06:00:26.564Z,46.67
2023-02-23T06:01:28.009Z,48.20
2023-02-23T06:02:29.377Z,48.03
2023-02-23T06:03:32.064Z,44.50
2023-02-23T06:04:36.088Z,46.30
2023-02-23T06:05:37.736Z,46.50
2023-02-23T06:06:39.069Z,48.03
2023-02-23T06:07:40.451Z,48.30
2023-02-23T06:08:42.079Z,50.07
2023-02-23T06:09:44.587Z,49.87
2023-02-23T06:10:46.776Z,49.53
2023-02-23T06:11:48.124Z,48.77
2023-02-23T06:12:49.579Z,46.17
2023-02-23T06:13:50.969Z,44.10
2023-02-23T06:14:52.973Z,48.40
2023-02-23T06:15:54.475Z,45.97
2023-02-23T06:16:55.875Z,45.80
2023-02-23T06:17:57.583Z,47.97
2023-02-23T06:18:59.284Z,46.53
2023-02-23T06:20:02.007Z,45.63
2023-02-23T06:21:03.933Z,45.40
2023-02-23T06:22:05.479Z,50.80
2023-02-23T06:23:07.458Z,47.63
2023-02-23T06:24:08.853Z,56.07
2023-02-23T06:25:12.829Z,46.90
2023-02-23T06:26:14.491Z,45.90
2023-02-23T06:27:15.815Z,47.63
2023-02-23T06:28:17.372Z,46.00
2023-02-23T06:29:18.921Z,46.83
2023-02-23T06:30:20.590Z,48.67
2023-02-23T06:31:22.249Z,45.27
2023-02-23T06:32:23.829Z,48.47
2023-02-23T06:33:26.030Z,49.30
2023-02-23T06:34:28.952Z,47.03
2023-02-23T06:35:30.288Z,46.53
2023-02-23T06:36:31.779Z,47.53
2023-02-23T06:37:33.385Z,50.90
2023-02-23T06:38:34.742Z,48.97
2023-02-23T06:39:36.060Z,49.30
2023-02-23T06:40:38.181Z,45.70
2023-02-23T06:41:39.574Z,46.83
2023-02-23T06:42:40.908Z,51.00
2023-02-23T06:43:42.351Z,47.57
2023-02-23T06:44:43.664Z,50.13
2023-02-23T06:45:46.036Z,47.50
2023-02-23T06:46:47.412Z,45.23
2023-02-23T06:47:48.914Z,48.57
2023-02-23T06:48:50.327Z,47.03
2023-02-23T06:49:51.656Z,47.20
2023-02-23T06:50:53.594Z,46.67
2023-02-23T06:51:55.275Z,45.30
2023-02-23T06:52:57.537Z,47.60
2023-02-23T06:53:58.841Z,49.73
2023-02-23T06:55:00.181Z,46.70
2023-02-23T06:56:01.756Z,46.40
2023-02-23T06:57:03.351Z,51.27
2023-02-23T06:58:07.095Z,46.63
2023-02-23T06:59:08.506Z,49.70
2023-02-23T07:00:11.230Z,47.87
2023-02-23T07:01:12.706Z,52.33
2023-02-23T07:02:14.107Z,46.67
2023-02-23T07:03:15.462Z,47.60
2023-02-23T07:04:17.043Z,45.90
2023-02-23T07:05:18.489Z,50.03
2023-02-23T07:06:19.860Z,47.63
2023-02-23T07:07:21.497Z,45.90
2023-02-23T07:08:22.876Z,45.43
2023-02-23T07:09:25.103Z,44.20
2023-02-23T07:10:29.724Z,47.60
2023-02-23T07:11:31.375Z,48.33
2023-02-23T07:12:32.804Z,46.17
2023-02-23T07:13:34.212Z,46.13
2023-02-23T07:14:35.725Z,44.07
2023-02-23T07:15:37.682Z,45.07
2023-02-23T07:18:36.194Z,44.00
2023-02-23T07:19:37.531Z,45.63
2023-02-23T07:20:38.870Z,43.47
2023-02-23T07:21:40.201Z,43.63
2023-02-23T07:22:50.912Z,44.57
2023-02-23T07:23:54.686Z,45.10
2023-02-23T07:24:59.045Z,46.87
2023-02-23T07:26:00.875Z,44.43
2023-02-23T07:27:02.178Z,43.17
2023-02-23T07:28:03.607Z,45.57
2023-02-23T07:29:04.991Z,44.17
2023-02-23T07:30:06.696Z,43.63
2023-02-23T07:31:08.114Z,42.07
2023-02-23T07:32:09.574Z,43.67
2023-02-23T07:33:11.149Z,43.17
2023-02-23T07:34:12.489Z,46.73
2023-02-23T07:35:13.907Z,42.47
2023-02-23T07:36:15.220Z,44.70
2023-02-23T07:37:17.193Z,41.77
2023-02-23T07:38:18.686Z,41.97
2023-02-23T07:39:20.370Z,45.53
2023-02-23T07:40:21.689Z,48.20
2023-02-23T07:41:23.242Z,41.00
2023-02-23T07:42:24.696Z,44.07
2023-02-23T07:43:27.713Z,43.17
2023-02-23T07:44:29.009Z,42.93
2023-02-23T07:45:30.599Z,42.43
2023-02-23T07:46:31.960Z,41.50
2023-02-23T07:47:34.610Z,43.03
2023-02-23T07:48:36.240Z,43.67
2023-02-23T07:49:37.535Z,41.37
2023-02-23T07:50:39.766Z,45.20
2023-02-23T07:51:41.518Z,41.53
2023-02-23T07:52:43.143Z,46.77
2023-02-23T07:53:44.868Z,41.40
2023-02-23T07:54:46.282Z,43.57
2023-02-23T07:55:55.186Z,43.57
2023-02-23T07:56:56.707Z,41.80
2023-02-23T07:57:58.057Z,40.27
2023-02-23T07:58:59.612Z,39.23
2023-02-23T08:00:01.328Z,38.17
2023-02-23T08:01:02.917Z,43.07
2023-02-23T08:02:04.248Z,40.90
2023-02-23T08:03:05.921Z,38.90
2023-02-23T08:04:07.307Z,40.67
2023-02-23T08:05:11.670Z,40.57
2023-02-23T08:06:12.984Z,40.03
2023-02-23T08:07:14.360Z,39.93
2023-02-23T08:08:15.668Z,39.73
2023-02-23T08:09:17.103Z,42.20
2023-02-23T08:10:18.518Z,42.70
2023-02-23T08:11:20.268Z,42.90
2023-02-23T08:12:21.911Z,39.20
2023-02-23T08:13:23.256Z,40.17
2023-02-23T08:14:24.798Z,37.80
2023-02-23T08:15:26.234Z,37.57
2023-02-23T08:16:28.435Z,41.37
2023-02-23T08:17:30.256Z,39.50
2023-02-23T08:18:31.696Z,41.27
2023-02-23T08:19:34.116Z,40.47
2023-02-23T08:20:35.526Z,36.57
2023-02-23T08:21:36.847Z,33.77
2023-02-23T08:22:48.984Z,37.57
2023-02-23T08:23:51.296Z,34.33
2023-02-23T08:24:52.688Z,35.73
2023-02-23T08:25:54.711Z,32.30
2023-02-23T08:26:56.594Z,36.00
2023-02-23T08:27:59.604Z,33.53
2023-02-23T08:29:00.912Z,36.83
2023-02-23T08:30:04.014Z,34.97
2023-02-23T08:31:08.756Z,31.43
2023-02-23T08:32:10.358Z,35.23
2023-02-23T08:33:11.823Z,30.50
2023-02-23T08:34:13.233Z,29.07
2023-02-23T08:35:14.959Z,28.97
2023-02-23T08:36:16.340Z,30.57
2023-02-23T08:37:17.917Z,29.23
2023-02-23T08:38:19.373Z,27.03
2023-02-23T08:39:21.281Z,28.07
2023-02-23T08:40:22.631Z,26.63
2023-02-23T08:41:25.477Z,28.80
2023-02-23T08:42:27.251Z,28.40
2023-02-23T08:43:28.854Z,26.77
2023-02-23T08:44:30.237Z,31.07
2023-02-23T08:45:31.659Z,27.10
2023-02-23T08:46:33.396Z,29.90
2023-02-23T08:47:36.096Z,27.60
2023-02-23T08:48:39.043Z,29.30
2023-02-23T08:49:40.482Z,28.50
2023-02-23T08:50:41.869Z,27.57
2023-02-23T08:51:43.202Z,29.07
2023-02-23T08:52:44.545Z,24.10
2023-02-23T08:53:45.861Z,27.00
2023-02-23T08:54:47.361Z,25.87
2023-02-23T08:55:48.761Z,25.60
2023-02-23T08:56:50.060Z,28.80
2023-02-23T08:57:51.368Z,25.93
2023-02-23T08:58:53.073Z,25.90
2023-02-23T08:59:54.420Z,22.63
2023-02-23T09:00:56.573Z,24.80
2023-02-23T09:01:57.909Z,21.23
2023-02-23T09:02:59.210Z,19.57
2023-02-23T09:04:00.584Z,21.63
2023-02-23T09:05:02.010Z,24.57
2023-02-23T09:06:08.508Z,22.00
2023-02-23T09:07:13.065Z,21.97
2023-02-23T09:08:14.827Z,18.53
2023-02-23T09:09:16.681Z,18.30
2023-02-23T09:10:19.934Z,19.50
2023-02-23T09:11:21.929Z,17.27
2023-02-23T09:12:23.429Z,19.03
2023-02-23T09:13:24.807Z,19.60
2023-02-23T09:14:26.559Z,17.80
2023-02-23T09:15:27.875Z,17.97
2023-02-23T09:16:29.276Z,17.17
2023-02-23T09:17:30.554Z,17.50
2023-02-23T09:18:32.604Z,18.73
2023-02-23T09:19:33.949Z,17.80
2023-02-23T09:20:35.327Z,15.33
2023-02-23T09:21:36.756Z,20.63
2023-02-23T09:22:38.112Z,18.63
2023-02-23T09:23:39.434Z,17.80
2023-02-23T09:24:40.717Z,15.27
2023-02-23T09:25:43.277Z,18.10
2023-02-23T09:26:45.954Z,14.63
2023-02-23T09:27:47.772Z,15.83
2023-02-23T09:28:49.482Z,13.43
2023-02-23T09:29:50.849Z,12.97
2023-02-23T09:30:52.203Z,14.37
2023-02-23T09:31:53.682Z,14.33
2023-02-23T09:32:56.310Z,12.20
2023-02-23T09:33:57.906Z,15.13
2023-02-23T09:34:59.217Z,13.03
2023-02-23T09:36:00.499Z,12.63
2023-02-23T09:37:02.760Z,14.50
2023-02-23T09:38:04.906Z,14.43
2023-02-23T09:39:06.232Z,13.67
2023-02-23T09:40:07.849Z,14.23
2023-02-23T09:41:30.068Z,14.17
2023-02-23T09:42:34.521Z,13.70
2023-02-23T09:43:42.451Z,14.43
2023-02-23T09:45:19.364Z,11.90
2023-02-23T09:46:28.514Z,13.07
2023-02-23T09:47:32.795Z,14.40
2023-02-23T09:48:34.681Z,12.67
2023-02-23T09:49:38.336Z,14.40
2023-02-23T09:50:41.956Z,15.00
2023-02-23T09:51:47.163Z,14.80
2023-02-23T09:52:52.198Z,13.90
2023-02-23T09:54:01.967Z,15.33
2023-02-23T09:55:03.603Z,14.50
2023-02-23T09:56:07.467Z,13.33
2023-02-23T09:57:12.886Z,13.40
2023-02-23T09:58:33.846Z,12.23
2023-02-23T09:59:35.925Z,12.93
2023-02-23T10:00:40.648Z,12.07
2023-02-23T10:01:46.027Z,12.93
2023-02-23T10:03:06.081Z,11.93
2023-02-23T10:04:26.151Z,15.13
2023-02-23T10:05:30.241Z,13.67
2023-02-23T10:06:31.598Z,14.27
2023-02-23T10:07:53.184Z,13.63
2023-02-23T10:09:15.525Z,12.90
2023-02-23T10:10:30.105Z,16.00
2023-02-23T10:11:44.812Z,14.53
2023-02-23T10:12:49.196Z,15.20
2023-02-23T10:13:58.895Z,13.20
2023-02-23T10:15:06.846Z,11.93
2023-02-23T10:16:16.305Z,12.80
2023-02-23T10:17:25.473Z,15.57
2023-02-23T10:18:47.316Z,13.17
2023-02-23T10:19:49.063Z,14.07
2023-02-23T10:20:55.544Z,13.07
2023-02-23T10:22:01.358Z,12.87
2023-02-23T10:23:04.675Z,14.27
2023-02-23T10:24:11.054Z,14.77
2023-02-23T10:25:14.450Z,13.10
2023-02-23T10:26:17.381Z,12.70
2023-02-23T10:27:20.300Z,14.70
2023-02-23T10:28:22.205Z,10.80
2023-02-23T10:29:28.639Z,14.87
2023-02-23T10:30:31.726Z,12.07
2023-02-23T10:31:37.338Z,13.17
2023-02-23T10:32:57.353Z,13.00
2023-02-23T10:34:00.005Z,11.07
2023-02-23T10:35:01.446Z,13.43
2023-02-23T10:36:13.786Z,12.60
2023-02-23T10:37:16.613Z,12.57
2023-02-23T10:38:18.725Z,13.47
2023-02-23T10:39:20.113Z,12.90
2023-02-23T10:40:25.316Z,12.10
2023-02-23T10:41:26.661Z,13.20
2023-02-23T10:42:31.908Z,14.27
2023-02-23T10:43:33.413Z,13.37
2023-02-23T10:44:34.806Z,13.73
2023-02-23T10:45:39.600Z,12.50
2023-02-23T10:46:41.669Z,16.30
2023-02-23T10:47:43.197Z,13.27
2023-02-23T10:48:44.830Z,12.53
2023-02-23T10:49:47.381Z,15.90
2023-02-23T10:50:53.703Z,13.90
2023-02-23T10:51:58.066Z,13.43
2023-02-23T10:53:18.492Z,15.67
2023-02-23T10:54:36.520Z,13.97
2023-02-23T10:55:37.902Z,12.97
2023-02-23T10:56:43.945Z,14.20
2023-02-23T10:57:45.281Z,16.03
2023-02-23T10:58:55.472Z,15.30
2023-02-23T11:00:09.795Z,18.33
2023-02-23T11:01:11.384Z,17.20
2023-02-23T11:02:23.090Z,14.57
2023-02-23T11:03:31.900Z,13.27
2023-02-23T11:04:34.948Z,14.90
2023-02-23T11:05:43.288Z,13.97
2023-02-23T11:06:44.651Z,12.23
2023-02-23T11:07:46.610Z,11.87
2023-02-23T11:08:47.903Z,13.57
2023-02-23T11:09:51.478Z,14.10
2023-02-23T11:11:03.516Z,13.23
2023-02-23T11:12:21.634Z,13.70
2023-02-23T11:13:24.205Z,12.90
2023-02-23T11:14:27.735Z,13.13
2023-02-23T11:15:49.383Z,12.83
2023-02-23T11:16:51.017Z,13.57
2023-02-23T11:17:56.191Z,13.27
2023-02-23T11:18:59.277Z,14.13
2023-02-23T11:20:20.888Z,13.17
2023-02-23T11:21:27.351Z,12.77
2023-02-23T11:22:31.102Z,13.30
2023-02-23T11:23:36.583Z,12.17
2023-02-23T11:24:40.173Z,15.20
2023-02-23T11:25:43.218Z,13.23
2023-02-23T11:26:45.687Z,13.63
2023-02-23T11:27:51.284Z,10.33
2023-02-23T11:28:53.982Z,11.93
2023-02-23T11:29:56.307Z,12.00
2023-02-23T11:31:01.624Z,12.90
2023-02-23T11:32:10.195Z,13.80
2023-02-23T11:33:16.425Z,14.13
2023-02-23T11:34:31.230Z,14.13
2023-02-23T11:35:32.612Z,12.90
2023-02-23T11:36:35.139Z,12.27
2023-02-23T11:37:37.211Z,13.77
2023-02-23T11:38:38.532Z,11.70
2023-02-23T11:39:50.263Z,12.20
2023-02-23T11:41:01.617Z,10.83
2023-02-23T11:42:15.049Z,14.37
2023-02-23T11:43:20.764Z,15.40
2023-02-23T11:44:23.083Z,15.43
2023-02-23T11:45:28.275Z,17.27
2023-02-23T11:46:31.466Z,16.87
2023-02-23T11:47:35.117Z,15.20
2023-02-23T11:48:48.696Z,13.63
2023-02-23T11:49:50.648Z,17.00
2023-02-23T11:50:52.840Z,13.80
2023-02-23T11:51:54.767Z,13.17
2023-02-23T11:53:16.433Z,16.30
2023-02-23T11:54:28.642Z,14.33
2023-02-23T11:55:31.274Z,14.50
2023-02-23T11:56:34.114Z,13.37
2023-02-23T11:57:36.122Z,14.87
2023-02-23T11:58:39.240Z,13.73
2023-02-23T11:59:41.192Z,15.83
2023-02-23T12:00:43.636Z,13.40
2023-02-23T12:01:49.810Z,15.47
2023-02-23T12:02:55.316Z,15.30
2023-02-23T12:03:57.664Z,13.07
2023-02-23T12:05:05.269Z,15.30
2023-02-23T12:06:06.693Z,15.20
2023-02-23T12:07:26.736Z,13.60
2023-02-23T12:08:28.019Z,15.40
2023-02-23T12:09:34.676Z,14.37
2023-02-23T12:10:36.108Z,12.87
2023-02-23T12:11:38.915Z,17.13
2023-02-23T12:12:45.284Z,12.63
2023-02-23T12:13:48.473Z,14.47
2023-02-23T12:14:53.274Z,16.87
2023-02-23T12:15:58.728Z,16.13
2023-02-23T12:17:05.243Z,15.77
2023-02-23T12:18:27.204Z,14.90
2023-02-23T12:19:31.429Z,14.87
2023-02-23T12:20:37.867Z,22.37
2023-02-23T12:21:44.102Z,15.30
2023-02-23T12:23:08.328Z,12.43
2023-02-23T12:24:20.339Z,14.03
2023-02-23T12:25:26.910Z,14.87
2023-02-23T12:26:29.150Z,15.27
2023-02-23T12:27:50.280Z,11.97
2023-02-23T12:28:54.278Z,11.83
2023-02-23T12:30:04.856Z,12.73
2023-02-23T12:31:40.418Z,11.57
2023-02-23T12:32:45.552Z,10.90
2023-02-23T12:33:48.348Z,14.57
2023-02-23T12:34:54.309Z,11.23
2023-02-23T12:36:02.628Z,11.27
2023-02-23T12:37:09.302Z,8.73
2023-02-23T12:38:27.711Z,14.90
2023-02-23T12:39:34.818Z,10.70
2023-02-23T12:40:38.809Z,13.87
2023-02-23T12:41:43.166Z,11.33
2023-02-23T12:42:53.924Z,12.83
2023-02-23T12:44:01.054Z,11.13
2023-02-23T12:45:05.985Z,10.87
2023-02-23T12:46:13.815Z,16.07
2023-02-23T12:47:25.863Z,9.83
2023-02-23T12:48:46.149Z,14.23
2023-02-23T12:49:54.141Z,13.07
2023-02-23T12:50:56.480Z,11.17
2023-02-23T12:52:08.879Z,10.87
2023-02-23T12:53:28.611Z,11.53
2023-02-23T12:54:31.354Z,13.97
2023-02-23T12:55:32.663Z,12.97
2023-02-23T12:56:42.333Z,11.77
2023-02-23T12:57:51.855Z,12.13
2023-02-23T12:59:02.361Z,10.77
2023-02-23T13:00:24.676Z,12.57
2023-02-23T13:01:27.955Z,15.57
2023-02-23T13:02:47.080Z,9.30
2023-02-23T13:03:51.492Z,10.70
2023-02-23T13:04:52.845Z,12.43
2023-02-23T13:06:06.329Z,12.73
2023-02-23T13:07:18.907Z,13.33
2023-02-23T13:08:38.626Z,10.73
2023-02-23T13:09:52.329Z,13.17
2023-02-23T13:10:55.338Z,11.03
2023-02-23T13:12:13.118Z,9.20
2023-02-23T13:13:22.949Z,13.87
2023-02-23T13:14:32.565Z,14.17
2023-02-23T13:15:52.567Z,13.87
2023-02-23T13:16:57.336Z,16.30
2023-02-23T13:18:06.916Z,12.93
2023-02-23T13:19:27.421Z,14.00
2023-02-23T13:20:40.677Z,16.60
2023-02-23T13:21:48.497Z,14.83
2023-02-23T13:22:53.447Z,17.80
2023-02-23T13:23:58.108Z,16.53
2023-02-23T13:25:04.545Z,14.30
2023-02-23T13:26:25.428Z,17.50
2023-02-23T13:27:34.801Z,14.67
2023-02-23T13:28:48.347Z,15.37
2023-02-23T13:29:52.694Z,16.50
2023-02-23T13:30:54.275Z,15.70
2023-02-23T13:31:55.835Z,18.53
2023-02-23T13:32:58.171Z,20.73
2023-02-23T13:34:00.435Z,18.90
2023-02-23T13:35:03.251Z,15.80
2023-02-23T13:36:04.703Z,14.67
2023-02-23T13:37:07.099Z,19.27
2023-02-23T13:38:20.188Z,15.17
2023-02-23T13:39:40.330Z,17.50
2023-02-23T13:40:46.737Z,14.50
2023-02-23T13:41:48.023Z,16.43
2023-02-23T13:43:07.650Z,16.23
2023-02-23T13:44:35.259Z,15.17
2023-02-23T13:45:42.579Z,14.60
2023-02-23T13:46:55.842Z,14.03
2023-02-23T13:48:00.132Z,14.13
2023-02-23T13:49:28.345Z,15.53
2023-02-23T13:50:35.846Z,16.73
2023-02-23T13:51:39.521Z,13.43
2023-02-23T13:52:42.408Z,17.03
2023-02-23T13:53:46.851Z,14.53
2023-02-23T13:54:52.022Z,13.70
2023-02-23T13:55:54.924Z,15.20
2023-02-23T13:56:57.516Z,15.63
2023-02-23T13:58:06.422Z,13.93
2023-02-23T13:59:09.526Z,13.27
2023-02-23T14:00:20.615Z,16.30
2023-02-23T14:01:23.056Z,14.03
2023-02-23T14:02:33.012Z,13.50
2023-02-23T14:03:41.111Z,16.17
2023-02-23T14:04:42.910Z,15.60
2023-02-23T14:05:45.060Z,16.90
2023-02-23T14:07:01.487Z,15.83
2023-02-23T14:08:05.159Z,15.10
2023-02-23T14:09:11.474Z,13.13
2023-02-23T14:10:24.385Z,12.93
2023-02-23T14:11:29.862Z,10.47